createdAt,value
2023-05-03T00:00:24.062Z,4.01
2023-05-03T00:02:57.596Z,3.95
2023-05-03T00:05:28.877Z,3.92
2023-05-03T00:07:58.887Z,3.98
2023-05-03T00:10:28.567Z,3.76
2023-05-03T00:12:58.354Z,4.08
2023-05-03T00:15:28.118Z,3.87
2023-05-03T00:18:00.470Z,3.95
2023-05-03T00:20:30.241Z,3.83
2023-05-03T00:22:59.883Z,4.05
2023-05-03T00:25:29.521Z,3.86
2023-05-03T00:27:59.202Z,3.67
2023-05-03T00:30:28.875Z,3.96
2023-05-03T00:33:01.100Z,4.20
2023-05-03T00:35:30.887Z,3.91
2023-05-03T00:38:00.493Z,3.77
2023-05-03T00:40:30.157Z,4.00
2023-05-03T00:42:59.847Z,3.74
2023-05-03T00:45:29.604Z,3.80
2023-05-03T00:48:02.227Z,3.98
2023-05-03T00:50:32.272Z,3.88
2023-05-03T00:53:02.060Z,4.04
2023-05-03T00:55:33.428Z,3.96
2023-05-03T00:58:03.062Z,4.01
2023-05-03T01:00:34.892Z,4.37
2023-05-03T01:03:07.184Z,4.20
2023-05-03T01:05:46.671Z,4.09
2023-05-03T01:08:24.134Z,4.16
2023-05-03T01:10:59.579Z,4.16
2023-05-03T01:13:36.358Z,4.28
2023-05-03T01:16:12.825Z,4.15
2023-05-03T01:18:49.277Z,4.07
2023-05-03T01:21:21.481Z,4.07
2023-05-03T01:23:57.616Z,4.22
2023-05-03T01:26:30.811Z,4.45
2023-05-03T01:29:00.519Z,4.42
2023-05-03T01:31:33.263Z,4.35
2023-05-03T01:34:13.009Z,4.63
2023-05-03T01:36:46.314Z,4.90
2023-05-03T01:39:21.539Z,4.65
2023-05-03T01:41:56.077Z,4.71
2023-05-03T01:44:26.520Z,4.50
2023-05-03T01:46:56.428Z,4.72
2023-05-03T01:49:26.140Z,4.72
2023-05-03T01:51:55.868Z,4.96
2023-05-03T01:54:25.593Z,4.97
2023-05-03T01:56:58.095Z,4.76
2023-05-03T01:59:27.760Z,5.16
2023-05-03T02:01:57.480Z,4.88
2023-05-03T02:04:27.274Z,4.85
2023-05-03T02:06:57.036Z,4.86
2023-05-03T02:09:28.593Z,4.96
2023-05-03T02:12:00.855Z,5.22
2023-05-03T02:14:33.172Z,5.30
2023-05-03T02:17:03.434Z,5.14
2023-05-03T02:19:33.266Z,4.89
2023-05-03T02:22:03.265Z,5.09
2023-05-03T02:24:36.413Z,4.99
2023-05-03T02:27:08.756Z,4.92
2023-05-03T02:29:38.455Z,5.43
2023-05-03T02:32:08.929Z,5.18
2023-05-03T02:34:38.617Z,4.94
2023-05-03T02:37:11.040Z,5.29
2023-05-03T02:39:41.278Z,5.51
2023-05-03T02:42:14.726Z,5.22
2023-05-03T02:44:46.562Z,5.84
2023-05-03T02:47:16.412Z,5.48
2023-05-03T02:49:48.373Z,5.59
2023-05-03T02:52:18.906Z,5.56
2023-05-03T02:54:49.749Z,5.82
2023-05-03T02:57:22.505Z,5.85
2023-05-03T02:59:52.157Z,5.75
2023-05-03T03:02:22.246Z,5.88
2023-05-03T03:04:51.954Z,6.21
2023-05-03T03:07:21.638Z,6.13
2023-05-03T03:09:51.603Z,5.91
2023-05-03T03:12:23.956Z,5.86
2023-05-03T03:14:55.479Z,6.00
2023-05-03T03:17:25.269Z,6.50
2023-05-03T03:19:55.655Z,6.40
2023-05-03T03:22:25.555Z,6.59
2023-05-03T03:24:55.260Z,6.61
2023-05-03T03:27:27.498Z,7.12
2023-05-03T03:29:57.196Z,7.32
2023-05-03T03:32:28.049Z,7.40
2023-05-03T03:34:59.078Z,7.32
2023-05-03T03:37:30.442Z,8.27
2023-05-03T03:40:00.366Z,8.06
2023-05-03T03:42:32.861Z,8.43
2023-05-03T03:45:02.808Z,8.76
2023-05-03T03:47:32.572Z,8.70
2023-05-03T03:50:03.313Z,8.34
2023-05-03T03:52:34.740Z,8.36
2023-05-03T03:55:05.342Z,8.45
2023-05-03T03:57:38.623Z,7.76
2023-05-03T04:00:11.855Z,7.55
2023-05-03T04:02:50.755Z,8.09
2023-05-03T04:05:21.879Z,7.96
2023-05-03T04:07:51.892Z,7.36
2023-05-03T04:10:23.013Z,7.38
2023-05-03T04:12:55.807Z,7.34
2023-05-03T04:15:25.817Z,7.71
2023-05-03T04:17:57.680Z,7.59
2023-05-03T04:20:28.319Z,7.39
2023-05-03T04:22:58.876Z,7.59
2023-05-03T04:25:32.070Z,7.85
2023-05-03T04:28:10.155Z,8.12
2023-05-03T04:30:45.320Z,7.63
2023-05-03T04:33:19.729Z,7.54
2023-05-03T04:35:52.220Z,7.53
2023-05-03T04:38:22.674Z,7.33
2023-05-03T04:40:53.431Z,7.65
2023-05-03T04:43:26.016Z,7.51
2023-05-03T04:45:56.071Z,7.57
2023-05-03T04:48:29.372Z,7.70
2023-05-03T04:50:59.079Z,7.84
2023-05-03T04:53:29.167Z,7.93
2023-05-03T04:56:08.298Z,8.14
2023-05-03T04:58:44.993Z,8.28
2023-05-03T05:01:17.360Z,8.62
2023-05-03T05:03:49.266Z,9.05
2023-05-03T05:06:24.122Z,8.57
2023-05-03T05:08:53.959Z,8.49
2023-05-03T05:11:24.192Z,7.77
2023-05-03T05:13:56.691Z,7.83
2023-05-03T05:16:27.000Z,7.79
2023-05-03T05:18:57.056Z,7.73
2023-05-03T05:21:29.867Z,7.68
2023-05-03T05:23:59.777Z,8.44
2023-05-03T05:26:30.069Z,7.68
2023-05-03T05:29:02.472Z,8.88
2023-05-03T05:31:32.183Z,8.86
2023-05-03T05:34:01.970Z,8.30
2023-05-03T05:36:33.471Z,8.08
2023-05-03T05:39:04.002Z,8.57
2023-05-03T05:41:35.012Z,8.12
2023-05-03T05:44:08.304Z,7.97
2023-05-03T05:46:38.111Z,8.23
2023-05-03T05:49:08.143Z,7.92
2023-05-03T05:51:37.883Z,8.43
2023-05-03T05:54:07.926Z,8.05
2023-05-03T05:56:38.078Z,7.67
2023-05-03T05:59:11.103Z,7.57
2023-05-03T06:01:41.978Z,7.93
2023-05-03T06:04:12.834Z,7.39
2023-05-03T06:06:43.216Z,8.04
2023-05-03T06:09:24.292Z,7.99
2023-05-03T06:11:57.598Z,7.54
2023-05-03T06:14:32.051Z,7.77
2023-05-03T06:17:02.804Z,7.60
2023-05-03T06:19:32.479Z,7.42
2023-05-03T06:22:02.167Z,7.47
2023-05-03T06:24:36.970Z,7.16
2023-05-03T06:27:08.083Z,7.23
2023-05-03T06:29:41.098Z,7.49
2023-05-03T06:32:10.773Z,7.66
2023-05-03T06:34:41.122Z,7.40
2023-05-03T06:37:11.253Z,7.12
2023-05-03T06:39:40.939Z,7.30
2023-05-03T06:42:10.703Z,7.22
2023-05-03T06:44:48.410Z,6.73
2023-05-03T06:47:20.416Z,6.55
2023-05-03T06:49:50.420Z,6.61
2023-05-03T06:52:20.260Z,6.44
2023-05-03T06:54:49.942Z,6.84
2023-05-03T06:57:19.852Z,6.59
2023-05-03T06:59:52.083Z,6.46
2023-05-03T07:02:22.014Z,6.31
2023-05-03T07:04:51.709Z,6.40
2023-05-03T07:07:21.532Z,6.04
2023-05-03T07:09:51.376Z,6.06
2023-05-03T07:12:21.028Z,6.32
2023-05-03T07:14:53.285Z,6.22
2023-05-03T07:17:23.272Z,6.24
2023-05-03T07:19:53.068Z,6.07
2023-05-03T07:22:25.015Z,5.93
2023-05-03T07:24:54.948Z,5.87
2023-05-03T07:27:24.817Z,6.13
2023-05-03T07:29:57.143Z,5.99
2023-05-03T07:32:27.063Z,5.79
2023-05-03T07:34:56.765Z,5.56
2023-05-03T07:37:27.938Z,5.81
2023-05-03T07:39:57.637Z,6.04
2023-05-03T07:42:27.308Z,5.82
2023-05-03T07:45:00.454Z,5.64
2023-05-03T07:47:31.136Z,5.26
2023-05-03T07:50:01.920Z,4.79
2023-05-03T07:52:31.700Z,4.89
2023-05-03T07:55:03.448Z,4.80
2023-05-03T07:57:33.343Z,5.02
2023-05-03T08:00:08.435Z,4.70
2023-05-03T08:02:43.686Z,4.86
2023-05-03T08:05:15.148Z,4.54
2023-05-03T08:07:44.963Z,4.60
2023-05-03T08:10:14.765Z,4.67
2023-05-03T08:12:45.759Z,4.68
2023-05-03T08:15:18.086Z,4.25
2023-05-03T08:17:48.853Z,4.09
2023-05-03T08:20:18.627Z,4.13
2023-05-03T08:22:48.302Z,4.15
2023-05-03T08:25:19.112Z,4.01
2023-05-03T08:27:49.461Z,3.78
2023-05-03T08:30:22.282Z,4.19
2023-05-03T08:32:52.236Z,3.96
2023-05-03T08:35:21.976Z,3.99
2023-05-03T08:37:51.774Z,3.84
2023-05-03T08:40:24.110Z,3.97
2023-05-03T08:42:53.744Z,3.93
2023-05-03T08:45:26.294Z,4.05
2023-05-03T08:47:57.396Z,4.18
2023-05-03T08:50:27.393Z,4.27
2023-05-03T08:52:57.196Z,4.19
2023-05-03T08:55:26.973Z,4.00
2023-05-03T08:57:58.082Z,4.12
2023-05-03T09:00:33.730Z,4.02
2023-05-03T09:03:04.433Z,4.10
2023-05-03T09:05:39.274Z,4.18
2023-05-03T09:08:10.091Z,4.09
2023-05-03T09:10:41.069Z,4.43
2023-05-03T09:13:12.243Z,4.16
2023-05-03T09:15:47.061Z,4.32
2023-05-03T09:18:21.272Z,4.32
2023-05-03T09:20:54.333Z,4.12
2023-05-03T09:23:34.063Z,4.30
2023-05-03T09:26:03.776Z,4.17
2023-05-03T09:28:44.917Z,4.55
2023-05-03T09:31:17.232Z,4.51
2023-05-03T09:33:46.958Z,4.41
2023-05-03T09:36:16.800Z,4.58
2023-05-03T09:38:46.815Z,4.50
2023-05-03T09:41:16.732Z,4.25
2023-05-03T09:43:55.609Z,4.21
2023-05-03T09:46:30.254Z,4.46
2023-05-03T09:49:02.327Z,4.62
2023-05-03T09:51:32.102Z,4.58
2023-05-03T09:54:02.185Z,4.72
2023-05-03T09:56:32.972Z,4.51
2023-05-03T09:59:03.894Z,4.65
2023-05-03T10:01:38.948Z,4.57
2023-05-03T10:04:10.211Z,4.59
2023-05-03T10:06:44.060Z,4.61
2023-05-03T10:09:17.218Z,4.71
2023-05-03T10:11:51.130Z,4.76
2023-05-03T10:14:21.165Z,4.80
2023-05-03T10:16:56.170Z,4.60
2023-05-03T10:19:30.624Z,4.83
2023-05-03T10:22:05.958Z,4.98
2023-05-03T10:24:36.615Z,4.88
2023-05-03T10:27:10.224Z,5.07
2023-05-03T10:29:54.166Z,5.04
2023-05-03T10:32:40.870Z,4.90
2023-05-03T10:35:13.749Z,4.76
2023-05-03T10:37:45.728Z,4.90
2023-05-03T10:40:16.889Z,4.65
2023-05-03T10:42:47.402Z,4.78
2023-05-03T10:45:27.701Z,5.11
2023-05-03T10:48:12.478Z,5.32
2023-05-03T10:50:45.198Z,5.25
2023-05-03T10:53:37.913Z,5.13
2023-05-03T10:56:08.612Z,5.18
2023-05-03T10:58:39.861Z,4.93
2023-05-03T11:01:10.251Z,5.47
2023-05-03T11:03:45.768Z,5.43
2023-05-03T11:06:32.723Z,5.47
2023-05-03T11:09:06.930Z,4.97
2023-05-03T11:11:39.646Z,5.08
2023-05-03T11:14:10.067Z,5.46
2023-05-03T11:16:47.794Z,5.23
2023-05-03T11:19:18.328Z,5.31
2023-05-03T11:21:48.557Z,5.37
2023-05-03T11:24:22.738Z,5.16
2023-05-03T11:26:52.564Z,5.82
2023-05-03T11:29:22.363Z,5.35
2023-05-03T11:31:53.122Z,5.41
2023-05-03T11:34:22.847Z,5.40
2023-05-03T11:36:52.669Z,5.36
2023-05-03T11:39:25.134Z,5.15
2023-05-03T11:42:05.634Z,5.31
2023-05-03T11:44:36.099Z,5.52
2023-05-03T11:47:06.722Z,5.20
2023-05-03T11:49:36.823Z,5.40
2023-05-03T11:52:06.714Z,5.38
2023-05-03T11:54:39.153Z,5.29
2023-05-03T11:57:15.591Z,5.25
2023-05-03T11:59:45.835Z,5.72
2023-05-03T12:02:16.982Z,5.60
2023-05-03T12:04:47.879Z,5.94
2023-05-03T12:07:20.039Z,5.73
2023-05-03T12:10:06.392Z,6.09
2023-05-03T12:12:45.929Z,6.12
2023-05-03T12:15:17.286Z,5.58
2023-05-03T12:17:49.918Z,5.85
2023-05-03T12:22:58.090Z,6.28
2023-05-03T12:25:34.041Z,5.94
2023-05-03T12:30:41.515Z,6.16
2023-05-03T12:33:12.150Z,6.05
2023-05-03T12:35:48.104Z,6.37
2023-05-03T12:38:18.517Z,6.01
2023-05-03T12:40:51.256Z,5.93
2023-05-03T12:43:21.144Z,5.93
2023-05-03T12:46:03.943Z,5.89
2023-05-03T12:48:39.608Z,6.16
2023-05-03T12:53:46.691Z,6.07
2023-05-03T12:56:23.811Z,6.75
2023-05-03T13:04:33.699Z,6.81
2023-05-03T13:06:54.245Z,6.28
2023-05-03T13:09:37.849Z,6.00
2023-05-03T13:12:10.896Z,6.55
2023-05-03T13:14:42.446Z,6.08
2023-05-03T13:17:13.572Z,6.47
2023-05-03T13:19:44.900Z,6.38
2023-05-03T13:22:14.847Z,6.33
2023-05-03T13:24:44.553Z,6.25
2023-05-03T13:27:17.827Z,6.23
2023-05-03T13:29:49.274Z,6.14
2023-05-03T13:32:19.567Z,6.20
2023-05-03T13:34:49.472Z,6.70
2023-05-03T13:37:20.797Z,6.39
2023-05-03T13:39:50.776Z,6.46
2023-05-03T13:42:23.052Z,7.16
2023-05-03T13:44:52.848Z,6.87
2023-05-03T13:47:23.341Z,6.29
2023-05-03T13:49:53.036Z,6.69
2023-05-03T13:52:22.938Z,6.94
2023-05-03T13:54:53.159Z,7.05
2023-05-03T13:57:25.380Z,7.10
2023-05-03T13:59:55.030Z,7.06
2023-05-03T14:02:24.793Z,7.12
2023-05-03T14:04:54.489Z,7.37
2023-05-03T14:07:24.204Z,7.04
2023-05-03T14:09:53.953Z,7.13
2023-05-03T14:12:26.440Z,7.06
2023-05-03T14:14:56.666Z,7.28
2023-05-03T14:17:26.406Z,6.94
2023-05-03T14:19:56.289Z,6.63
2023-05-03T14:22:26.284Z,7.13
2023-05-03T14:24:56.205Z,7.33
2023-05-03T14:27:28.434Z,7.35
2023-05-03T14:29:58.223Z,7.33
2023-05-03T14:32:28.056Z,7.11
2023-05-03T14:34:57.797Z,7.04
2023-05-03T14:37:27.590Z,6.89
2023-05-03T14:39:57.875Z,6.93
2023-05-03T14:42:32.495Z,6.81
2023-05-03T14:45:03.196Z,6.75
2023-05-03T14:47:33.096Z,6.46
2023-05-03T14:50:03.018Z,6.63
2023-05-03T14:52:33.342Z,7.17
2023-05-03T14:55:03.165Z,7.08
2023-05-03T14:57:36.513Z,7.14
2023-05-03T15:00:08.867Z,6.76
2023-05-03T15:02:38.522Z,6.85
2023-05-03T15:05:08.839Z,6.34
2023-05-03T15:07:38.704Z,6.61
2023-05-03T15:10:09.206Z,6.65
2023-05-03T15:12:42.556Z,7.01
2023-05-03T15:15:12.715Z,6.98
2023-05-03T15:17:43.596Z,7.38
2023-05-03T15:20:15.465Z,7.33
2023-05-03T15:22:45.118Z,7.00
2023-05-03T15:25:14.780Z,7.38
2023-05-03T15:27:47.017Z,7.00
2023-05-03T15:30:17.483Z,7.39
2023-05-03T15:32:47.419Z,6.71
2023-05-03T15:35:17.308Z,6.74
2023-05-03T15:37:47.022Z,7.15
2023-05-03T15:40:17.753Z,7.54
2023-05-03T15:42:50.061Z,6.95
2023-05-03T15:45:20.972Z,6.89
2023-05-03T15:47:50.950Z,7.07
2023-05-03T15:50:20.797Z,7.01
2023-05-03T15:52:50.793Z,6.89
2023-05-03T15:55:21.083Z,6.71
2023-05-03T15:57:53.517Z,6.89
2023-05-03T16:00:23.220Z,7.13
2023-05-03T16:02:53.210Z,7.23
2023-05-03T16:05:23.317Z,6.79
2023-05-03T16:07:53.448Z,7.01
2023-05-03T16:10:25.064Z,6.42
2023-05-03T16:12:57.563Z,6.95
2023-05-03T16:15:27.480Z,6.90
2023-05-03T16:17:57.241Z,6.80
2023-05-03T16:20:26.983Z,6.96
2023-05-03T16:22:56.726Z,6.15
2023-05-03T16:25:26.756Z,6.64
2023-05-03T16:27:59.720Z,6.67
2023-05-03T16:30:29.521Z,6.94
2023-05-03T16:32:59.440Z,6.84
2023-05-03T16:35:29.248Z,6.76
2023-05-03T16:37:59.149Z,6.77
2023-05-03T16:40:28.910Z,7.35
2023-05-03T16:43:04.570Z,6.57
2023-05-03T16:45:34.254Z,6.54
2023-05-03T16:48:05.597Z,6.59
2023-05-03T16:50:37.365Z,6.46
2023-05-03T16:53:07.126Z,6.66
2023-05-03T16:55:36.815Z,6.52
2023-05-03T16:58:09.458Z,6.54
2023-05-03T17:00:39.220Z,6.59
2023-05-03T17:03:11.880Z,6.13
2023-05-03T17:05:44.728Z,6.33
2023-05-03T17:08:15.641Z,6.18
2023-05-03T17:10:45.464Z,5.91
2023-05-03T17:13:17.946Z,6.16
2023-05-03T17:15:48.129Z,6.13
2023-05-03T17:18:17.853Z,6.35
2023-05-03T17:20:47.682Z,6.44
2023-05-03T17:23:19.294Z,6.08
2023-05-03T17:25:50.036Z,5.97
2023-05-03T17:28:22.416Z,5.81
2023-05-03T17:30:52.516Z,6.06
2023-05-03T17:33:22.213Z,5.49
2023-05-03T17:35:51.999Z,5.77
2023-05-03T17:38:21.721Z,5.66
2023-05-03T17:40:51.534Z,5.58
2023-05-03T17:43:23.892Z,5.78
2023-05-03T17:45:53.716Z,5.83
2023-05-03T17:48:23.799Z,5.57
2023-05-03T17:51:00.163Z,5.80
2023-05-03T17:53:30.049Z,5.76
2023-05-03T17:55:59.845Z,5.48
2023-05-03T17:58:32.195Z,5.71
2023-05-03T18:01:01.887Z,5.74
2023-05-03T18:03:34.099Z,6.22
2023-05-03T18:06:04.025Z,6.25
2023-05-03T18:08:33.868Z,5.86
2023-05-03T18:11:03.714Z,6.32
2023-05-03T18:13:36.842Z,6.09
2023-05-03T18:16:09.898Z,6.13
2023-05-03T18:18:40.244Z,6.47
2023-05-03T18:21:10.770Z,6.00
2023-05-03T18:26:10.663Z,5.84
2023-05-03T18:28:42.973Z,5.79
2023-05-03T18:31:16.379Z,6.34
2023-05-03T18:33:49.086Z,5.80
2023-05-03T18:36:19.615Z,6.28
2023-05-03T18:38:53.292Z,6.26
2023-05-03T18:41:23.288Z,6.35
2023-05-03T18:43:57.541Z,6.57
2023-05-03T18:46:27.332Z,6.82
2023-05-03T18:48:57.103Z,6.63
2023-05-03T18:51:26.825Z,6.72
2023-05-03T18:53:56.956Z,6.79
2023-05-03T18:56:26.712Z,6.56
2023-05-03T18:58:59.045Z,6.90
2023-05-03T19:01:29.893Z,6.71
2023-05-03T19:03:59.773Z,6.66
2023-05-03T19:06:29.992Z,6.94
2023-05-03T19:08:59.721Z,7.01
2023-05-03T19:11:29.349Z,6.89
2023-05-03T19:14:01.608Z,7.48
2023-05-03T19:16:32.562Z,7.81
2023-05-03T19:19:02.715Z,9.28
2023-05-03T19:21:32.922Z,9.99
2023-05-03T19:24:02.698Z,9.84
2023-05-03T19:26:32.377Z,10.30
2023-05-03T19:29:04.622Z,9.03
2023-05-03T19:31:34.384Z,9.41
2023-05-03T19:34:04.538Z,8.96
2023-05-03T19:36:34.199Z,8.72
2023-05-03T19:39:03.868Z,8.24
2023-05-03T19:41:33.576Z,8.11
2023-05-03T19:44:05.973Z,8.26
2023-05-03T19:46:35.802Z,8.07
2023-05-03T19:49:05.940Z,8.07
2023-05-03T19:51:35.600Z,8.15
2023-05-03T19:54:05.665Z,8.62
2023-05-03T19:56:35.379Z,8.18
2023-05-03T19:59:07.806Z,8.71
2023-05-03T20:01:37.539Z,8.37
2023-05-03T20:04:07.402Z,8.81
2023-05-03T20:06:37.178Z,8.97
2023-05-03T20:09:06.877Z,9.24
2023-05-03T20:11:36.538Z,9.68
2023-05-03T20:14:08.792Z,9.08
2023-05-03T20:16:39.998Z,9.21
2023-05-03T20:19:09.674Z,9.38
2023-05-03T20:21:39.454Z,9.84
2023-05-03T20:24:10.988Z,9.19
2023-05-03T20:26:41.337Z,9.76
2023-05-03T20:29:15.909Z,10.19
2023-05-03T20:31:48.203Z,9.99
2023-05-03T20:34:18.281Z,9.98
2023-05-03T20:36:47.991Z,10.00
2023-05-03T20:39:17.749Z,9.84
2023-05-03T20:41:47.422Z,10.01
2023-05-03T20:44:19.731Z,10.00
2023-05-03T20:46:49.645Z,10.24
2023-05-03T20:49:19.394Z,10.35
2023-05-03T20:51:49.611Z,10.03
2023-05-03T20:54:19.341Z,10.19
2023-05-03T20:56:49.203Z,10.29
2023-05-03T20:59:21.511Z,10.04
2023-05-03T21:01:51.682Z,10.49
2023-05-03T21:04:21.383Z,10.50
2023-05-03T21:06:51.305Z,10.72
2023-05-03T21:09:21.069Z,10.70
2023-05-03T21:11:50.815Z,11.03
2023-05-03T21:14:23.062Z,10.88
2023-05-03T21:16:52.767Z,11.34
2023-05-03T21:19:22.570Z,11.35
2023-05-03T21:21:52.198Z,11.49
2023-05-03T21:24:24.923Z,11.59
2023-05-03T21:26:54.690Z,11.19
2023-05-03T21:29:27.082Z,11.49
2023-05-03T21:31:57.207Z,11.20
2023-05-03T21:34:26.981Z,11.21
2023-05-03T21:36:56.696Z,11.56
2023-05-03T21:39:26.415Z,11.42
2023-05-03T21:41:56.036Z,11.25
2023-05-03T21:44:28.412Z,10.94
2023-05-03T21:46:58.244Z,11.07
2023-05-03T21:49:28.023Z,11.56
2023-05-03T21:51:57.865Z,11.44
2023-05-03T21:54:27.630Z,12.09
2023-05-03T21:56:58.011Z,12.34
2023-05-03T21:59:30.298Z,11.83
2023-05-03T22:02:00.088Z,12.42
2023-05-03T22:04:30.077Z,12.14
2023-05-03T22:07:00.136Z,12.25
2023-05-03T22:09:32.408Z,13.24
2023-05-03T22:12:08.448Z,12.44
2023-05-03T22:14:51.888Z,13.11
2023-05-03T22:17:21.793Z,12.90
2023-05-03T22:19:51.565Z,13.12
2023-05-03T22:22:21.262Z,13.19
2023-05-03T22:24:50.939Z,12.99
2023-05-03T22:27:20.627Z,13.25
2023-05-03T22:29:52.915Z,13.15
2023-05-03T22:32:22.721Z,12.77
2023-05-03T22:34:52.468Z,13.34
2023-05-03T22:37:22.235Z,12.79
2023-05-03T22:39:51.845Z,13.43
2023-05-03T22:42:21.750Z,13.30
2023-05-03T22:44:55.761Z,13.32
2023-05-03T22:47:26.287Z,13.33
2023-05-03T22:49:56.050Z,12.63
2023-05-03T22:52:25.797Z,12.74
2023-05-03T22:54:57.673Z,12.77
2023-05-03T22:57:27.380Z,12.02
2023-05-03T22:59:59.665Z,11.87
2023-05-03T23:02:29.437Z,12.19
2023-05-03T23:04:59.120Z,12.54
2023-05-03T23:07:28.829Z,11.72
2023-05-03T23:10:03.909Z,11.77
2023-05-03T23:12:34.287Z,11.99
2023-05-03T23:15:07.171Z,12.25
2023-05-03T23:17:36.892Z,12.43
2023-05-03T23:20:07.432Z,12.04
2023-05-03T23:22:39.454Z,11.94
2023-05-03T23:25:09.381Z,11.48
2023-05-03T23:27:39.094Z,11.75
2023-05-03T23:30:12.560Z,11.45
2023-05-03T23:32:43.216Z,12.03
2023-05-03T23:35:13.314Z,11.51
2023-05-03T23:37:42.970Z,11.63
2023-05-03T23:40:13.114Z,11.56
2023-05-03T23:42:43.657Z,11.56
2023-05-03T23:45:16.256Z,11.82
2023-05-03T23:47:46.150Z,11.99
2023-05-03T23:50:15.804Z,11.74
2023-05-03T23:52:45.537Z,11.93
2023-05-03T23:55:15.280Z,12.19
2023-05-03T23:57:44.984Z,12.01
